sensor_id;sensor_type;location;lat;lon;timestamp;pressure;altitude;pressure_sealevel;temperature;humidity
69306;BME280;56427;51.580;4.656;2023-07-29T00:02:01;100770.41;;;17.10;100.00
69306;BME280;56427;51.580;4.656;2023-07-29T00:04:27;100765.47;;;17.16;100.00
69306;BME280;56427;51.580;4.656;2023-07-29T00:06:53;100767.78;;;17.10;100.00
69306;BME280;56427;51.580;4.656;2023-07-29T00:09:19;100764.75;;;17.22;100.00
69306;BME280;56427;51.580;4.656;2023-07-29T00:11:44;100759.50;;;17.22;100.00
69306;BME280;56427;51.580;4.656;2023-07-29T00:14:10;100767.38;;;17.22;100.00
69306;BME280;56427;51.580;4.656;2023-07-29T00:16:37;100747.41;;;17.21;100.00
69306;BME280;56427;51.580;4.656;2023-07-29T00:19:02;100760.81;;;17.26;100.00
69306;BME280;56427;51.580;4.656;2023-07-29T00:21:28;100756.03;;;17.29;100.00
69306;BME280;56427;51.580;4.656;2023-07-29T00:23:54;100752.44;;;17.31;100.00
69306;BME280;56427;51.580;4.656;2023-07-29T00:26:22;100751.41;;;17.32;100.00
69306;BME280;56427;51.580;4.656;2023-07-29T00:28:48;100755.16;;;17.37;100.00
69306;BME280;56427;51.580;4.656;2023-07-29T00:31:13;100761.84;;;17.40;100.00
69306;BME280;56427;51.580;4.656;2023-07-29T00:33:39;100760.66;;;17.51;100.00
69306;BME280;56427;51.580;4.656;2023-07-29T00:36:04;100759.72;;;17.43;100.00
69306;BME280;56427;51.580;4.656;2023-07-29T00:38:30;100757.16;;;17.35;100.00
69306;BME280;56427;51.580;4.656;2023-07-29T00:40:57;100759.56;;;17.37;100.00
69306;BME280;56427;51.580;4.656;2023-07-29T00:43:22;100753.81;;;17.41;100.00
69306;BME280;56427;51.580;4.656;2023-07-29T00:45:48;100758.78;;;17.36;100.00
69306;BME280;56427;51.580;4.656;2023-07-29T00:48:13;100760.69;;;17.42;100.00
69306;BME280;56427;51.580;4.656;2023-07-29T00:50:39;100753.28;;;17.46;100.00
69306;BME280;56427;51.580;4.656;2023-07-29T00:53:05;100760.13;;;17.55;100.00
69306;BME280;56427;51.580;4.656;2023-07-29T00:55:32;100758.59;;;17.38;100.00
69306;BME280;56427;51.580;4.656;2023-07-29T00:57:57;100756.44;;;17.41;100.00
69306;BME280;56427;51.580;4.656;2023-07-29T01:00:23;100751.31;;;17.48;100.00
69306;BME280;56427;51.580;4.656;2023-07-29T01:02:49;100749.91;;;17.37;100.00
69306;BME280;56427;51.580;4.656;2023-07-29T01:05:16;100746.28;;;17.38;100.00
69306;BME280;56427;51.580;4.656;2023-07-29T01:07:57;100757.56;;;17.47;100.00
69306;BME280;56427;51.580;4.656;2023-07-29T01:16:02;100737.16;;;17.34;100.00
69306;BME280;56427;51.580;4.656;2023-07-29T01:18:31;100734.69;;;17.33;100.00
69306;BME280;56427;51.580;4.656;2023-07-29T01:21:01;100733.22;;;17.30;100.00
69306;BME280;56427;51.580;4.656;2023-07-29T01:23:33;100731.31;;;17.24;100.00
69306;BME280;56427;51.580;4.656;2023-07-29T01:25:59;100725.72;;;17.27;100.00
69306;BME280;56427;51.580;4.656;2023-07-29T01:28:25;100729.50;;;17.24;100.00
69306;BME280;56427;51.580;4.656;2023-07-29T01:31:05;100724.91;;;17.26;100.00
69306;BME280;56427;51.580;4.656;2023-07-29T01:33:41;100729.38;;;17.18;100.00
69306;BME280;56427;51.580;4.656;2023-07-29T01:36:13;100733.50;;;17.12;100.00
69306;BME280;56427;51.580;4.656;2023-07-29T01:38:41;100723.25;;;17.02;100.00
69306;BME280;56427;51.580;4.656;2023-07-29T01:41:09;100722.53;;;17.08;100.00
69306;BME280;56427;51.580;4.656;2023-07-29T01:43:36;100730.16;;;16.95;100.00
69306;BME280;56427;51.580;4.656;2023-07-29T01:46:10;100728.72;;;16.84;100.00
69306;BME280;56427;51.580;4.656;2023-07-29T01:48:37;100719.91;;;16.77;100.00
69306;BME280;56427;51.580;4.656;2023-07-29T01:51:03;100709.75;;;16.74;100.00
69306;BME280;56427;51.580;4.656;2023-07-29T01:53:30;100708.78;;;16.75;100.00
69306;BME280;56427;51.580;4.656;2023-07-29T01:55:57;100704.34;;;16.75;100.00
69306;BME280;56427;51.580;4.656;2023-07-29T01:58:23;100711.88;;;16.79;100.00
69306;BME280;56427;51.580;4.656;2023-07-29T02:00:49;100707.75;;;16.84;100.00
69306;BME280;56427;51.580;4.656;2023-07-29T02:03:14;100701.38;;;16.79;100.00
69306;BME280;56427;51.580;4.656;2023-07-29T02:05:40;100699.09;;;16.75;100.00
69306;BME280;56427;51.580;4.656;2023-07-29T02:08:11;100700.13;;;16.74;100.00
69306;BME280;56427;51.580;4.656;2023-07-29T02:10:37;100704.00;;;16.79;100.00
69306;BME280;56427;51.580;4.656;2023-07-29T02:13:03;100706.28;;;16.90;100.00
69306;BME280;56427;51.580;4.656;2023-07-29T02:15:30;100693.69;;;16.85;100.00
69306;BME280;56427;51.580;4.656;2023-07-29T02:17:55;100681.06;;;16.81;100.00
69306;BME280;56427;51.580;4.656;2023-07-29T02:20:21;100680.25;;;16.80;100.00
69306;BME280;56427;51.580;4.656;2023-07-29T02:22:46;100686.13;;;16.82;100.00
69306;BME280;56427;51.580;4.656;2023-07-29T02:25:15;100679.44;;;16.88;100.00
69306;BME280;56427;51.580;4.656;2023-07-29T02:27:40;100678.47;;;16.72;100.00
69306;BME280;56427;51.580;4.656;2023-07-29T02:30:06;100685.03;;;16.77;100.00
69306;BME280;56427;51.580;4.656;2023-07-29T02:32:34;100682.78;;;16.65;100.00
69306;BME280;56427;51.580;4.656;2023-07-29T02:35:00;100684.31;;;16.60;100.00
69306;BME280;56427;51.580;4.656;2023-07-29T02:37:26;100678.72;;;16.54;100.00
69306;BME280;56427;51.580;4.656;2023-07-29T02:39:52;100686.91;;;16.60;100.00
69306;BME280;56427;51.580;4.656;2023-07-29T02:42:17;100683.19;;;16.46;100.00
69306;BME280;56427;51.580;4.656;2023-07-29T02:44:43;100678.44;;;16.49;100.00
69306;BME280;56427;51.580;4.656;2023-07-29T02:47:08;100679.94;;;16.44;100.00
69306;BME280;56427;51.580;4.656;2023-07-29T02:49:34;100698.44;;;16.42;100.00
69306;BME280;56427;51.580;4.656;2023-07-29T02:51:59;100689.47;;;16.36;100.00
69306;BME280;56427;51.580;4.656;2023-07-29T02:54:25;100694.03;;;16.34;100.00
69306;BME280;56427;51.580;4.656;2023-07-29T02:56:53;100693.38;;;16.41;100.00
69306;BME280;56427;51.580;4.656;2023-07-29T02:59:18;100691.91;;;16.30;100.00
69306;BME280;56427;51.580;4.656;2023-07-29T03:01:45;100695.69;;;16.35;100.00
69306;BME280;56427;51.580;4.656;2023-07-29T03:04:10;100694.72;;;16.28;100.00
69306;BME280;56427;51.580;4.656;2023-07-29T03:06:38;100700.94;;;16.27;100.00
69306;BME280;56427;51.580;4.656;2023-07-29T03:09:03;100697.81;;;16.32;100.00
69306;BME280;56427;51.580;4.656;2023-07-29T03:11:30;100708.09;;;16.42;100.00
69306;BME280;56427;51.580;4.656;2023-07-29T03:13:56;100700.25;;;16.42;100.00
69306;BME280;56427;51.580;4.656;2023-07-29T03:16:22;100696.31;;;16.37;100.00
69306;BME280;56427;51.580;4.656;2023-07-29T03:18:48;100701.56;;;16.37;100.00
69306;BME280;56427;51.580;4.656;2023-07-29T03:21:14;100698.78;;;16.39;100.00
69306;BME280;56427;51.580;4.656;2023-07-29T03:23:39;100703.50;;;16.44;100.00
69306;BME280;56427;51.580;4.656;2023-07-29T03:26:05;100690.59;;;16.42;100.00
69306;BME280;56427;51.580;4.656;2023-07-29T03:28:41;100687.31;;;16.40;100.00
69306;BME280;56427;51.580;4.656;2023-07-29T03:31:11;100689.75;;;16.50;100.00
69306;BME280;56427;51.580;4.656;2023-07-29T03:33:36;100683.38;;;16.44;100.00
69306;BME280;56427;51.580;4.656;2023-07-29T03:36:02;100683.22;;;16.37;100.00
69306;BME280;56427;51.580;4.656;2023-07-29T03:38:28;100682.41;;;16.37;100.00
69306;BME280;56427;51.580;4.656;2023-07-29T03:40:53;100670.97;;;16.30;100.00
69306;BME280;56427;51.580;4.656;2023-07-29T03:43:19;100667.50;;;16.37;100.00
69306;BME280;56427;51.580;4.656;2023-07-29T03:45:44;100666.72;;;16.29;100.00
69306;BME280;56427;51.580;4.656;2023-07-29T03:48:10;100670.81;;;16.23;100.00
69306;BME280;56427;51.580;4.656;2023-07-29T03:50:36;100683.56;;;16.34;100.00
69306;BME280;56427;51.580;4.656;2023-07-29T03:53:02;100690.78;;;16.32;100.00
69306;BME280;56427;51.580;4.656;2023-07-29T03:55:30;100682.59;;;16.35;100.00
69306;BME280;56427;51.580;4.656;2023-07-29T03:57:59;100687.81;;;16.35;100.00
69306;BME280;56427;51.580;4.656;2023-07-29T04:00:25;100680.44;;;16.39;100.00
69306;BME280;56427;51.580;4.656;2023-07-29T04:02:51;100672.91;;;16.36;100.00
69306;BME280;56427;51.580;4.656;2023-07-29T04:05:16;100671.13;;;16.36;100.00
69306;BME280;56427;51.580;4.656;2023-07-29T04:07:42;100681.25;;;16.40;100.00
69306;BME280;56427;51.580;4.656;2023-07-29T04:10:09;100685.38;;;16.34;100.00
69306;BME280;56427;51.580;4.656;2023-07-29T04:12:34;100694.88;;;16.35;100.00
69306;BME280;56427;51.580;4.656;2023-07-29T04:15:00;100699.72;;;16.46;100.00
69306;BME280;56427;51.580;4.656;2023-07-29T04:17:25;100702.66;;;16.51;100.00
69306;BME280;56427;51.580;4.656;2023-07-29T04:19:50;100696.59;;;16.51;100.00
69306;BME280;56427;51.580;4.656;2023-07-29T04:22:16;100699.34;;;16.58;100.00
69306;BME280;56427;51.580;4.656;2023-07-29T04:24:42;100702.66;;;16.51;100.00
69306;BME280;56427;51.580;4.656;2023-07-29T04:27:07;100704.66;;;16.41;100.00
69306;BME280;56427;51.580;4.656;2023-07-29T04:29:33;100701.19;;;16.49;100.00
69306;BME280;56427;51.580;4.656;2023-07-29T04:32:00;100711.84;;;16.47;100.00
69306;BME280;56427;51.580;4.656;2023-07-29T04:34:26;100704.94;;;16.54;100.00
69306;BME280;56427;51.580;4.656;2023-07-29T04:36:52;100702.69;;;16.43;100.00
69306;BME280;56427;51.580;4.656;2023-07-29T04:39:17;100708.56;;;16.53;100.00
69306;BME280;56427;51.580;4.656;2023-07-29T04:41:43;100711.38;;;16.44;100.00
69306;BME280;56427;51.580;4.656;2023-07-29T04:44:09;100711.38;;;16.44;100.00
69306;BME280;56427;51.580;4.656;2023-07-29T04:46:35;100720.34;;;16.49;100.00
69306;BME280;56427;51.580;4.656;2023-07-29T04:49:01;100722.16;;;16.49;100.00
69306;BME280;56427;51.580;4.656;2023-07-29T04:51:28;100722.63;;;16.52;100.00
69306;BME280;56427;51.580;4.656;2023-07-29T04:53:54;100727.69;;;16.54;100.00
69306;BME280;56427;51.580;4.656;2023-07-29T04:56:19;100731.75;;;16.65;100.00
69306;BME280;56427;51.580;4.656;2023-07-29T04:58:45;100728.03;;;16.51;100.00
69306;BME280;56427;51.580;4.656;2023-07-29T05:01:10;100714.94;;;16.51;100.00
69306;BME280;56427;51.580;4.656;2023-07-29T05:03:36;100721.00;;;16.51;100.00
69306;BME280;56427;51.580;4.656;2023-07-29T05:06:02;100714.47;;;16.47;100.00
69306;BME280;56427;51.580;4.656;2023-07-29T05:08:28;100719.19;;;16.52;100.00
69306;BME280;56427;51.580;4.656;2023-07-29T05:10:54;100718.53;;;16.58;100.00
69306;BME280;56427;51.580;4.656;2023-07-29T05:13:21;100710.31;;;16.61;100.00
69306;BME280;56427;51.580;4.656;2023-07-29T05:15:48;100709.03;;;16.57;100.00
69306;BME280;56427;51.580;4.656;2023-07-29T05:18:14;100703.28;;;16.62;100.00
69306;BME280;56427;51.580;4.656;2023-07-29T05:20:40;100694.94;;;16.58;100.00
69306;BME280;56427;51.580;4.656;2023-07-29T05:23:06;100700.19;;;16.58;100.00
69306;BME280;56427;51.580;4.656;2023-07-29T05:25:32;100713.09;;;16.68;100.00
69306;BME280;56427;51.580;4.656;2023-07-29T05:28:00;100716.19;;;16.71;100.00
69306;BME280;56427;51.580;4.656;2023-07-29T05:30:25;100703.53;;;16.75;100.00
69306;BME280;56427;51.580;4.656;2023-07-29T05:32:52;100702.03;;;16.81;100.00
69306;BME280;56427;51.580;4.656;2023-07-29T05:35:17;100695.63;;;16.83;100.00
69306;BME280;56427;51.580;4.656;2023-07-29T05:37:43;100698.03;;;17.01;100.00
69306;BME280;56427;51.580;4.656;2023-07-29T05:40:08;100692.31;;;16.98;100.00
69306;BME280;56427;51.580;4.656;2023-07-29T05:42:34;100699.97;;;17.07;100.00
69306;BME280;56427;51.580;4.656;2023-07-29T05:45:00;100710.28;;;17.09;100.00
69306;BME280;56427;51.580;4.656;2023-07-29T05:47:26;100699.38;;;17.20;100.00
69306;BME280;56427;51.580;4.656;2023-07-29T05:49:52;100705.50;;;17.74;100.00
69306;BME280;56427;51.580;4.656;2023-07-29T05:52:18;100711.56;;;17.97;100.00
69306;BME280;56427;51.580;4.656;2023-07-29T05:54:44;100707.72;;;17.85;100.00
69306;BME280;56427;51.580;4.656;2023-07-29T05:57:12;100714.38;;;18.11;100.00
69306;BME280;56427;51.580;4.656;2023-07-29T05:59:38;100713.13;;;18.36;100.00
69306;BME280;56427;51.580;4.656;2023-07-29T06:02:04;100711.88;;;19.20;100.00
69306;BME280;56427;51.580;4.656;2023-07-29T06:04:30;100706.75;;;19.34;100.00
69306;BME280;56427;51.580;4.656;2023-07-29T06:06:55;100700.03;;;19.09;100.00
69306;BME280;56427;51.580;4.656;2023-07-29T06:09:23;100702.09;;;18.92;100.00
69306;BME280;56427;51.580;4.656;2023-07-29T06:11:50;100702.03;;;18.71;100.00
69306;BME280;56427;51.580;4.656;2023-07-29T06:14:16;100706.84;;;18.67;100.00
69306;BME280;56427;51.580;4.656;2023-07-29T06:16:41;100701.63;;;18.37;100.00
69306;BME280;56427;51.580;4.656;2023-07-29T06:19:07;100712.75;;;18.39;100.00
69306;BME280;56427;51.580;4.656;2023-07-29T06:21:34;100710.09;;;18.84;100.00
69306;BME280;56427;51.580;4.656;2023-07-29T06:23:59;100720.09;;;18.29;100.00
69306;BME280;56427;51.580;4.656;2023-07-29T06:26:25;100714.84;;;18.29;100.00
69306;BME280;56427;51.580;4.656;2023-07-29T06:28:50;100716.38;;;18.83;100.00
69306;BME280;56427;51.580;4.656;2023-07-29T06:31:17;100720.97;;;19.61;100.00
69306;BME280;56427;51.580;4.656;2023-07-29T06:33:43;100711.72;;;19.72;100.00
69306;BME280;56427;51.580;4.656;2023-07-29T06:36:08;100720.53;;;19.79;100.00
69306;BME280;56427;51.580;4.656;2023-07-29T06:38:33;100706.69;;;20.82;100.00
69306;BME280;56427;51.580;4.656;2023-07-29T06:40:59;100712.56;;;20.77;100.00
69306;BME280;56427;51.580;4.656;2023-07-29T06:43:24;100711.59;;;20.43;100.00
69306;BME280;56427;51.580;4.656;2023-07-29T06:45:50;100716.38;;;20.33;100.00
69306;BME280;56427;51.580;4.656;2023-07-29T06:48:16;100715.06;;;19.80;100.00
69306;BME280;56427;51.580;4.656;2023-07-29T06:50:41;100714.69;;;19.62;100.00
69306;BME280;56427;51.580;4.656;2023-07-29T06:53:06;100718.06;;;20.06;100.00
69306;BME280;56427;51.580;4.656;2023-07-29T06:55:32;100718.25;;;20.04;100.00
69306;BME280;56427;51.580;4.656;2023-07-29T06:57:57;100726.31;;;20.31;100.00
69306;BME280;56427;51.580;4.656;2023-07-29T07:00:23;100717.94;;;21.10;100.00
69306;BME280;56427;51.580;4.656;2023-07-29T07:02:48;100717.59;;;21.80;100.00
69306;BME280;56427;51.580;4.656;2023-07-29T07:05:14;100709.47;;;21.62;100.00
69306;BME280;56427;51.580;4.656;2023-07-29T07:07:39;100713.13;;;21.67;100.00
69306;BME280;56427;51.580;4.656;2023-07-29T07:10:05;100699.69;;;21.89;100.00
69306;BME280;56427;51.580;4.656;2023-07-29T07:12:31;100710.22;;;22.29;100.00
69306;BME280;56427;51.580;4.656;2023-07-29T07:14:56;100714.09;;;21.40;100.00
69306;BME280;56427;51.580;4.656;2023-07-29T07:17:21;100723.84;;;21.32;100.00
69306;BME280;56427;51.580;4.656;2023-07-29T07:19:47;100730.84;;;20.92;100.00
69306;BME280;56427;51.580;4.656;2023-07-29T07:22:12;100736.75;;;20.87;100.00
69306;BME280;56427;51.580;4.656;2023-07-29T07:24:38;100746.75;;;20.22;100.00
69306;BME280;56427;51.580;4.656;2023-07-29T07:27:03;100736.28;;;20.35;100.00
69306;BME280;56427;51.580;4.656;2023-07-29T07:29:29;100744.28;;;20.55;100.00
69306;BME280;56427;51.580;4.656;2023-07-29T07:31:56;100745.38;;;20.33;100.00
69306;BME280;56427;51.580;4.656;2023-07-29T07:34:22;100745.41;;;20.04;100.00
69306;BME280;56427;51.580;4.656;2023-07-29T07:36:48;100747.66;;;20.42;100.00
69306;BME280;56427;51.580;4.656;2023-07-29T07:39:13;100753.03;;;20.56;100.00
69306;BME280;56427;51.580;4.656;2023-07-29T07:41:40;100744.81;;;21.54;100.00
69306;BME280;56427;51.580;4.656;2023-07-29T07:44:06;100728.31;;;21.99;100.00
69306;BME280;56427;51.580;4.656;2023-07-29T07:46:31;100730.16;;;21.45;100.00
69306;BME280;56427;51.580;4.656;2023-07-29T07:48:56;100741.59;;;20.90;100.00
69306;BME280;56427;51.580;4.656;2023-07-29T07:51:22;100725.75;;;20.77;100.00
69306;BME280;56427;51.580;4.656;2023-07-29T07:53:48;100731.44;;;20.39;100.00
69306;BME280;56427;51.580;4.656;2023-07-29T07:56:15;100730.66;;;20.10;100.00
69306;BME280;56427;51.580;4.656;2023-07-29T07:58:41;100741.81;;;20.12;100.00
69306;BME280;56427;51.580;4.656;2023-07-29T08:01:07;100742.50;;;19.93;100.00
69306;BME280;56427;51.580;4.656;2023-07-29T08:03:34;100748.13;;;20.46;100.00
69306;BME280;56427;51.580;4.656;2023-07-29T08:06:00;100729.97;;;20.65;100.00
69306;BME280;56427;51.580;4.656;2023-07-29T08:08:26;100744.63;;;20.46;100.00
69306;BME280;56427;51.580;4.656;2023-07-29T08:10:57;100735.72;;;20.88;100.00
69306;BME280;56427;51.580;4.656;2023-07-29T08:13:24;100741.13;;;21.42;100.00
69306;BME280;56427;51.580;4.656;2023-07-29T08:15:51;100740.72;;;21.45;100.00
69306;BME280;56427;51.580;4.656;2023-07-29T08:18:17;100743.59;;;21.77;100.00
69306;BME280;56427;51.580;4.656;2023-07-29T08:20:57;100732.84;;;21.58;100.00
69306;BME280;56427;51.580;4.656;2023-07-29T08:23:30;100730.59;;;21.48;100.00
69306;BME280;56427;51.580;4.656;2023-07-29T08:26:00;100727.56;;;21.65;100.00
69306;BME280;56427;51.580;4.656;2023-07-29T08:28:38;100732.81;;;21.98;100.00
69306;BME280;56427;51.580;4.656;2023-07-29T08:31:04;100733.03;;;21.83;100.00
69306;BME280;56427;51.580;4.656;2023-07-29T08:33:31;100735.47;;;21.92;100.00
69306;BME280;56427;51.580;4.656;2023-07-29T08:35:57;100735.06;;;21.88;100.00
69306;BME280;56427;51.580;4.656;2023-07-29T08:38:24;100734.81;;;22.16;100.00
69306;BME280;56427;51.580;4.656;2023-07-29T08:40:54;100730.72;;;22.14;100.00
69306;BME280;56427;51.580;4.656;2023-07-29T08:43:29;100728.28;;;22.26;100.00
69306;BME280;56427;51.580;4.656;2023-07-29T08:45:57;100738.03;;;22.45;100.00
69306;BME280;56427;51.580;4.656;2023-07-29T08:48:39;100732.53;;;22.40;100.00
69306;BME280;56427;51.580;4.656;2023-07-29T08:51:08;100736.00;;;22.27;100.00
69306;BME280;56427;51.580;4.656;2023-07-29T08:53:34;100728.31;;;21.45;100.00
69306;BME280;56427;51.580;4.656;2023-07-29T08:56:01;100731.16;;;21.24;100.00
69306;BME280;56427;51.580;4.656;2023-07-29T08:58:27;100742.72;;;21.23;100.00
69306;BME280;56427;51.580;4.656;2023-07-29T09:00:53;100734.53;;;20.91;100.00
69306;BME280;56427;51.580;4.656;2023-07-29T09:03:20;100737.44;;;21.23;100.00
69306;BME280;56427;51.580;4.656;2023-07-29T09:05:46;100737.28;;;21.64;100.00
69306;BME280;56427;51.580;4.656;2023-07-29T09:08:14;100736.63;;;21.29;100.00
69306;BME280;56427;51.580;4.656;2023-07-29T09:10:40;100741.75;;;21.77;100.00
69306;BME280;56427;51.580;4.656;2023-07-29T09:13:06;100731.00;;;21.65;100.00
69306;BME280;56427;51.580;4.656;2023-07-29T09:15:35;100736.28;;;21.85;100.00
69306;BME280;56427;51.580;4.656;2023-07-29T09:18:17;100743.72;;;22.22;100.00
69306;BME280;56427;51.580;4.656;2023-07-29T09:20:43;100738.25;;;22.30;100.00
69306;BME280;56427;51.580;4.656;2023-07-29T09:23:10;100742.59;;;21.84;100.00
69306;BME280;56427;51.580;4.656;2023-07-29T09:25:36;100724.28;;;21.96;100.00
69306;BME280;56427;51.580;4.656;2023-07-29T09:28:11;100730.38;;;21.43;100.00
69306;BME280;56427;51.580;4.656;2023-07-29T09:30:41;100732.34;;;21.28;100.00
69306;BME280;56427;51.580;4.656;2023-07-29T09:33:10;100734.78;;;21.09;100.00
69306;BME280;56427;51.580;4.656;2023-07-29T09:35:37;100729.22;;;20.77;100.00
69306;BME280;56427;51.580;4.656;2023-07-29T09:38:03;100727.38;;;20.78;100.00
69306;BME280;56427;51.580;4.656;2023-07-29T09:40:40;100724.78;;;20.91;100.00
69306;BME280;56427;51.580;4.656;2023-07-29T09:43:07;100730.53;;;21.22;100.00
69306;BME280;56427;51.580;4.656;2023-07-29T09:45:36;100723.03;;;21.19;100.00
69306;BME280;56427;51.580;4.656;2023-07-29T09:48:03;100720.59;;;21.17;100.00
69306;BME280;56427;51.580;4.656;2023-07-29T09:50:30;100720.97;;;21.01;100.00
69306;BME280;56427;51.580;4.656;2023-07-29T09:52:56;100725.81;;;20.97;100.00
69306;BME280;56427;51.580;4.656;2023-07-29T09:55:28;100731.03;;;20.84;100.00
69306;BME280;56427;51.580;4.656;2023-07-29T09:58:00;100732.28;;;20.94;100.00
69306;BME280;56427;51.580;4.656;2023-07-29T10:00:30;100735.34;;;20.98;100.00
69306;BME280;56427;51.580;4.656;2023-07-29T10:02:57;100734.38;;;21.19;100.00
69306;BME280;56427;51.580;4.656;2023-07-29T10:05:25;100728.88;;;21.01;100.00
69306;BME280;56427;51.580;4.656;2023-07-29T10:07:51;100729.28;;;21.11;100.00
69306;BME280;56427;51.580;4.656;2023-07-29T10:10:20;100720.19;;;21.27;100.00
69306;BME280;56427;51.580;4.656;2023-07-29T10:12:46;100720.63;;;21.50;100.00
69306;BME280;56427;51.580;4.656;2023-07-29T10:15:12;100722.47;;;21.50;100.00
69306;BME280;56427;51.580;4.656;2023-07-29T10:17:38;100724.00;;;21.04;100.00
69306;BME280;56427;51.580;4.656;2023-07-29T10:20:05;100724.44;;;21.28;100.00
69306;BME280;56427;51.580;4.656;2023-07-29T10:22:42;100737.16;;;20.91;100.00
69306;BME280;56427;51.580;4.656;2023-07-29T10:25:21;100742.25;;;20.16;100.00
69306;BME280;56427;51.580;4.656;2023-07-29T10:27:49;100738.44;;;20.18;100.00
69306;BME280;56427;51.580;4.656;2023-07-29T10:30:17;100746.25;;;20.05;100.00
69306;BME280;56427;51.580;4.656;2023-07-29T10:32:44;100729.31;;;20.21;100.00
69306;BME280;56427;51.580;4.656;2023-07-29T10:35:13;100750.09;;;20.44;100.00
69306;BME280;56427;51.580;4.656;2023-07-29T10:37:39;100755.81;;;20.48;100.00
69306;BME280;56427;51.580;4.656;2023-07-29T10:40:08;100760.00;;;20.35;100.00
69306;BME280;56427;51.580;4.656;2023-07-29T10:42:34;100762.84;;;20.06;100.00
69306;BME280;56427;51.580;4.656;2023-07-29T10:45:00;100774.97;;;19.57;100.00
69306;BME280;56427;51.580;4.656;2023-07-29T10:47:27;100772.75;;;19.17;100.00
69306;BME280;56427;51.580;4.656;2023-07-29T10:49:57;100785.75;;;19.04;100.00
69306;BME280;56427;51.580;4.656;2023-07-29T10:52:32;100782.97;;;18.75;100.00
69306;BME280;56427;51.580;4.656;2023-07-29T10:55:23;100801.91;;;18.56;100.00
69306;BME280;56427;51.580;4.656;2023-07-29T10:57:49;100793.94;;;18.49;100.00
69306;BME280;56427;51.580;4.656;2023-07-29T11:00:15;100788.03;;;18.32;100.00
69306;BME280;56427;51.580;4.656;2023-07-29T11:02:41;100782.78;;;18.32;100.00
69306;BME280;56427;51.580;4.656;2023-07-29T11:05:16;100775.78;;;18.10;100.00
69306;BME280;56427;51.580;4.656;2023-07-29T11:07:45;100779.34;;;18.32;100.00
69306;BME280;56427;51.580;4.656;2023-07-29T11:10:12;100777.38;;;18.49;100.00
69306;BME280;56427;51.580;4.656;2023-07-29T11:17:48;100785.25;;;18.49;100.00
69306;BME280;56427;51.580;4.656;2023-07-29T11:20:15;100773.97;;;18.70;100.00
69306;BME280;56427;51.580;4.656;2023-07-29T11:22:41;100771.66;;;18.90;100.00
69306;BME280;56427;51.580;4.656;2023-07-29T11:25:09;100772.63;;;19.04;100.00
69306;BME280;56427;51.580;4.656;2023-07-29T11:27:35;100768.53;;;19.01;100.00
69306;BME280;56427;51.580;4.656;2023-07-29T11:30:03;100765.94;;;18.86;100.00
69306;BME280;56427;51.580;4.656;2023-07-29T11:32:30;100763.47;;;19.00;100.00
69306;BME280;56427;51.580;4.656;2023-07-29T11:34:56;100774.66;;;19.23;100.00
69306;BME280;56427;51.580;4.656;2023-07-29T11:37:22;100778.81;;;19.33;100.00
69306;BME280;56427;51.580;4.656;2023-07-29T11:39:48;100778.34;;;19.29;100.00
69306;BME280;56427;51.580;4.656;2023-07-29T11:42:14;100790.06;;;19.26;100.00
69306;BME280;56427;51.580;4.656;2023-07-29T11:44:40;100792.66;;;19.05;100.00
69306;BME280;56427;51.580;4.656;2023-07-29T11:47:12;100794.56;;;18.96;100.00
69306;BME280;56427;51.580;4.656;2023-07-29T11:49:42;100792.13;;;18.94;100.00
69306;BME280;56427;51.580;4.656;2023-07-29T11:52:08;100790.41;;;19.60;100.00
69306;BME280;56427;51.580;4.656;2023-07-29T11:54:38;100795.22;;;19.99;100.00
69306;BME280;56427;51.580;4.656;2023-07-29T11:57:08;100783.44;;;19.95;100.00
69306;BME280;56427;51.580;4.656;2023-07-29T11:59:35;100786.50;;;19.99;100.00
69306;BME280;56427;51.580;4.656;2023-07-29T12:02:02;100778.31;;;19.87;100.00
69306;BME280;56427;51.580;4.656;2023-07-29T12:04:31;100776.06;;;19.84;100.00
69306;BME280;56427;51.580;4.656;2023-07-29T12:07:00;100795.50;;;20.11;100.00
69306;BME280;56427;51.580;4.656;2023-07-29T12:09:27;100780.53;;;20.47;100.00
69306;BME280;56427;51.580;4.656;2023-07-29T12:11:54;100777.16;;;20.94;100.00
69306;BME280;56427;51.580;4.656;2023-07-29T12:14:21;100781.16;;;20.49;100.00
69306;BME280;56427;51.580;4.656;2023-07-29T12:16:51;100780.16;;;20.85;100.00
69306;BME280;56427;51.580;4.656;2023-07-29T12:19:18;100772.28;;;20.98;100.00
69306;BME280;56427;51.580;4.656;2023-07-29T12:21:44;100765.47;;;21.30;100.00
69306;BME280;56427;51.580;4.656;2023-07-29T12:24:11;100768.94;;;21.44;100.00
69306;BME280;56427;51.580;4.656;2023-07-29T12:26:37;100750.28;;;21.53;100.00
69306;BME280;56427;51.580;4.656;2023-07-29T12:29:17;100755.72;;;22.24;100.00
69306;BME280;56427;51.580;4.656;2023-07-29T12:31:45;100749.44;;;22.05;100.00
69306;BME280;56427;51.580;4.656;2023-07-29T12:34:17;100748.47;;;21.60;100.00
69306;BME280;56427;51.580;4.656;2023-07-29T12:36:47;100743.59;;;21.50;100.00
69306;BME280;56427;51.580;4.656;2023-07-29T12:39:20;100748.66;;;21.45;100.00
69306;BME280;56427;51.580;4.656;2023-07-29T12:41:47;100737.91;;;21.73;100.00
69306;BME280;56427;51.580;4.656;2023-07-29T12:44:13;100744.00;;;21.67;100.00
69306;BME280;56427;51.580;4.656;2023-07-29T12:46:39;100739.13;;;21.84;100.00
69306;BME280;56427;51.580;4.656;2023-07-29T12:49:06;100746.31;;;22.55;100.00
69306;BME280;56427;51.580;4.656;2023-07-29T12:51:32;100740.13;;;21.90;100.00